createdAt,value
2019-03-02T00:00:29.550Z,57.05
2019-03-02T00:03:00.726Z,52.30
2019-03-02T00:05:32.819Z,52.67
2019-03-02T00:08:08.196Z,56.92
2019-03-02T00:10:40.817Z,50.43
2019-03-02T00:13:11.548Z,52.85
2019-03-02T00:15:42.833Z,52.17
2019-03-02T00:18:12.899Z,57.73
2019-03-02T00:20:42.811Z,51.40
2019-03-02T00:23:15.810Z,59.08
2019-03-02T00:25:44.482Z,61.10
2019-03-02T00:28:14.622Z,65.08
2019-03-02T00:30:45.443Z,60.28
2019-03-02T00:33:16.610Z,64.65
2019-03-02T00:35:47.311Z,70.40
2019-03-02T00:38:17.239Z,55.55
2019-03-02T00:40:47.243Z,58.58
2019-03-02T00:43:17.331Z,65.10
2019-03-02T00:45:48.862Z,69.40
2019-03-02T00:48:19.130Z,59.65
2019-03-02T00:50:49.164Z,67.22
2019-03-02T00:53:19.046Z,64.27
2019-03-02T00:55:48.979Z,70.80
2019-03-02T00:58:19.207Z,61.10
2019-03-02T01:00:49.968Z,58.30
2019-03-02T01:03:20.967Z,59.20
2019-03-02T01:05:51.171Z,60.60
2019-03-02T01:08:21.034Z,68.20
2019-03-02T01:10:51.040Z,65.32
2019-03-02T01:13:23.082Z,57.03
2019-03-02T01:15:53.742Z,56.50
2019-03-02T01:18:24.258Z,69.40
2019-03-02T01:20:54.279Z,57.67
2019-03-02T01:23:27.565Z,73.05
2019-03-02T01:25:56.145Z,60.00
2019-03-02T01:28:26.061Z,60.33
2019-03-02T01:30:56.074Z,65.83
2019-03-02T01:33:28.607Z,58.48
2019-03-02T01:35:57.892Z,66.07
2019-03-02T01:38:28.142Z,58.30
2019-03-02T01:41:19.096Z,58.65
2019-03-02T01:43:51.427Z,51.65
2019-03-02T01:46:23.325Z,60.60
2019-03-02T01:49:01.604Z,52.35
2019-03-02T01:51:33.934Z,60.78
2019-03-02T01:54:05.235Z,52.48
2019-03-02T01:56:37.769Z,48.28
2019-03-02T01:59:12.644Z,54.15
2019-03-02T02:01:46.113Z,53.33
2019-03-02T02:04:22.598Z,52.93
2019-03-02T02:06:53.287Z,50.48
2019-03-02T02:09:28.159Z,54.75
2019-03-02T02:12:01.110Z,48.75
2019-03-02T02:14:36.525Z,49.73
2019-03-02T02:17:06.389Z,49.83
2019-03-02T02:19:38.633Z,48.28
2019-03-02T02:22:08.337Z,50.83
2019-03-02T02:24:38.246Z,50.85
2019-03-02T02:27:08.158Z,41.02
2019-03-02T02:29:40.679Z,44.88
2019-03-02T02:32:09.934Z,51.02
2019-03-02T02:34:39.866Z,45.95
2019-03-02T02:37:09.694Z,49.93
2019-03-02T02:39:39.603Z,40.58
2019-03-02T02:42:09.612Z,51.70
2019-03-02T02:44:39.656Z,48.17
2019-03-02T02:47:12.403Z,49.90
2019-03-02T02:49:44.434Z,43.85
2019-03-02T02:52:13.347Z,47.05
2019-03-02T02:54:43.355Z,49.65
2019-03-02T02:57:13.122Z,45.80
2019-03-02T02:59:43.010Z,48.02
2019-03-02T03:02:13.040Z,58.13
2019-03-02T03:04:42.949Z,46.10
2019-03-02T03:07:14.289Z,41.13
2019-03-02T03:09:50.851Z,50.00
2019-03-02T03:12:22.658Z,50.78
2019-03-02T03:14:54.309Z,45.38
2019-03-02T03:17:28.277Z,46.63
2019-03-02T03:19:56.369Z,54.42
2019-03-02T03:22:26.288Z,47.78
2019-03-02T03:24:56.310Z,45.88
2019-03-02T03:27:26.331Z,50.03
2019-03-02T03:29:56.663Z,44.15
2019-03-02T03:32:26.672Z,51.10
2019-03-02T03:34:56.536Z,43.20
2019-03-02T03:37:26.568Z,44.83
2019-03-02T03:39:56.593Z,48.68
2019-03-02T03:43:18.495Z,45.30
2019-03-02T03:45:52.864Z,50.40
2019-03-02T03:48:29.432Z,44.93
2019-03-02T03:50:59.574Z,50.52
2019-03-02T03:53:31.831Z,46.58
2019-03-02T03:56:06.783Z,46.90
2019-03-02T03:58:40.044Z,44.85
2019-03-02T04:01:17.316Z,48.98
2019-03-02T04:03:47.207Z,43.85
2019-03-02T04:06:18.148Z,43.92
2019-03-02T04:08:48.128Z,40.55
2019-03-02T04:12:08.026Z,53.25
2019-03-02T04:14:37.910Z,39.92
2019-03-02T04:17:45.016Z,41.42
2019-03-02T04:20:19.966Z,48.58
2019-03-02T04:22:50.951Z,47.00
2019-03-02T04:25:21.025Z,44.10
2019-03-02T04:27:54.291Z,41.05
2019-03-02T04:30:30.712Z,50.63
2019-03-02T04:32:54.665Z,40.35
2019-03-02T04:35:24.505Z,41.18
2019-03-02T04:37:56.457Z,45.98
2019-03-02T04:40:27.817Z,47.65
2019-03-02T04:42:58.395Z,44.40
2019-03-02T04:45:28.292Z,47.13
2019-03-02T04:47:59.852Z,40.70
2019-03-02T04:50:30.043Z,51.70
2019-03-02T04:52:59.925Z,47.10
2019-03-02T04:55:29.784Z,41.05
2019-03-02T04:57:59.638Z,50.40
2019-03-02T05:00:32.046Z,44.85
2019-03-02T05:03:02.679Z,51.13
2019-03-02T05:05:32.963Z,46.48
2019-03-02T05:08:05.186Z,47.00
2019-03-02T05:10:34.751Z,44.50
2019-03-02T05:13:05.988Z,58.30
2019-03-02T05:15:36.124Z,41.20
2019-03-02T05:18:06.058Z,45.23
2019-03-02T05:20:37.793Z,50.85
2019-03-02T05:23:08.216Z,49.42
2019-03-02T05:25:38.093Z,43.23
2019-03-02T05:28:09.998Z,46.00
2019-03-02T05:30:39.911Z,51.42
2019-03-02T05:33:09.855Z,45.40
2019-03-02T05:35:39.760Z,49.20
2019-03-02T05:38:11.721Z,57.88
2019-03-02T05:40:41.775Z,46.65
2019-03-02T05:43:11.671Z,45.88
2019-03-02T05:45:41.536Z,46.30
2019-03-02T05:48:11.451Z,45.60
2019-03-02T05:50:41.380Z,50.80
2019-03-02T05:53:11.212Z,52.23
2019-03-02T05:55:41.233Z,47.08
2019-03-02T05:58:12.510Z,50.70
2019-03-02T06:00:43.016Z,56.85
2019-03-02T06:03:13.146Z,54.98
2019-03-02T06:05:43.023Z,55.00
2019-03-02T06:08:13.242Z,57.27
2019-03-02T06:10:43.171Z,46.68
2019-03-02T06:13:13.429Z,54.70
2019-03-02T06:15:46.369Z,60.45
2019-03-02T06:18:15.148Z,50.95
2019-03-02T06:20:45.063Z,52.55
2019-03-02T06:23:14.924Z,52.78
2019-03-02T06:25:44.864Z,48.08
2019-03-02T06:28:14.928Z,59.70
2019-03-02T06:30:45.026Z,59.85
2019-03-02T06:33:35.188Z,54.23
2019-03-02T06:36:08.731Z,55.98
2019-03-02T06:38:37.742Z,52.17
2019-03-02T06:41:07.805Z,54.18
2019-03-02T06:43:37.753Z,46.75
2019-03-02T06:46:07.578Z,49.90
2019-03-02T06:48:37.512Z,55.25
2019-03-02T06:51:07.808Z,55.17
2019-03-02T06:53:39.226Z,58.45
2019-03-02T06:56:09.079Z,50.03
2019-03-02T06:58:38.898Z,48.35
2019-03-02T07:01:08.922Z,47.98
2019-03-02T07:03:38.834Z,52.95
2019-03-02T07:06:11.638Z,50.40
2019-03-02T07:08:40.524Z,58.08
2019-03-02T07:11:10.516Z,52.13
2019-03-02T07:13:40.519Z,51.77
2019-03-02T07:16:10.430Z,48.38
2019-03-02T07:19:02.717Z,52.90
2019-03-02T07:21:32.551Z,52.30
2019-03-02T07:24:02.514Z,52.13
2019-03-02T07:26:32.334Z,52.50
2019-03-02T07:29:02.359Z,53.65
2019-03-02T07:31:32.225Z,49.30
2019-03-02T07:34:04.825Z,51.15
2019-03-02T07:36:34.841Z,61.05
2019-03-02T07:39:07.127Z,47.62
2019-03-02T07:41:37.151Z,53.92
2019-03-02T07:44:15.238Z,56.42
2019-03-02T07:46:47.990Z,50.33
2019-03-02T07:49:25.108Z,51.37
2019-03-02T07:52:07.509Z,49.53
2019-03-02T07:54:42.488Z,55.15
2019-03-02T07:57:23.282Z,48.20
2019-03-02T07:59:54.538Z,41.58
2019-03-02T08:02:25.720Z,55.20
2019-03-02T08:05:03.269Z,44.70
2019-03-02T08:07:39.327Z,47.88
2019-03-02T08:10:10.896Z,37.38
2019-03-02T08:12:46.628Z,43.55
2019-03-02T08:15:20.306Z,44.60
2019-03-02T08:17:52.472Z,41.63
2019-03-02T08:20:24.414Z,37.03
2019-03-02T08:22:54.731Z,35.58
2019-03-02T08:25:24.808Z,34.55
2019-03-02T08:27:56.098Z,35.48
2019-03-02T08:30:29.775Z,40.83
2019-03-02T08:32:59.193Z,35.08
2019-03-02T08:35:30.507Z,39.58
2019-03-02T08:38:05.444Z,35.65
2019-03-02T08:40:33.908Z,38.45
2019-03-02T08:43:04.254Z,33.48
2019-03-02T08:45:34.281Z,39.30
2019-03-02T08:48:04.817Z,38.67
2019-03-02T08:50:34.931Z,29.10
2019-03-02T08:53:05.033Z,29.15
2019-03-02T08:55:35.153Z,28.12
2019-03-02T08:58:05.064Z,36.08
2019-03-02T09:00:35.053Z,28.50
2019-03-02T09:03:08.146Z,32.65
2019-03-02T09:05:45.117Z,32.78
2019-03-02T09:08:13.163Z,26.50
2019-03-02T09:10:49.218Z,28.85
2019-03-02T09:13:19.010Z,25.08
2019-03-02T09:15:53.370Z,31.00
2019-03-02T09:18:23.889Z,40.00
2019-03-02T09:20:54.451Z,29.32
2019-03-02T09:23:52.963Z,29.42
2019-03-02T09:26:24.883Z,26.62
2019-03-02T09:28:57.478Z,31.48
2019-03-02T09:31:28.417Z,26.05
2019-03-02T09:34:31.588Z,26.10
2019-03-02T09:37:03.775Z,27.22
2019-03-02T09:39:38.405Z,26.93
2019-03-02T09:42:21.443Z,20.37
2019-03-02T09:44:51.596Z,27.62
2019-03-02T09:47:22.607Z,24.90
2019-03-02T09:49:57.259Z,24.87
2019-03-02T09:52:35.353Z,30.15
2019-03-02T09:55:18.496Z,24.25
2019-03-02T09:58:10.384Z,22.42
2019-03-02T10:00:43.151Z,21.40
2019-03-02T10:03:14.136Z,21.95
2019-03-02T10:05:46.616Z,22.95
2019-03-02T10:08:18.170Z,18.32
2019-03-02T10:10:48.388Z,20.12
2019-03-02T10:13:18.763Z,21.48
2019-03-02T10:16:00.567Z,23.30
2019-03-02T10:18:32.300Z,23.05
2019-03-02T10:21:06.102Z,24.92
2019-03-02T10:23:38.928Z,22.15
2019-03-02T10:26:09.444Z,22.40
2019-03-02T10:28:39.628Z,20.35
2019-03-02T10:31:10.880Z,18.52
2019-03-02T10:33:41.510Z,25.62
2019-03-02T10:36:11.507Z,22.75
2019-03-02T10:38:41.458Z,23.25
2019-03-02T10:41:11.486Z,24.85
2019-03-02T10:43:42.744Z,27.10
2019-03-02T10:46:12.892Z,20.48
2019-03-02T10:48:43.122Z,22.52
2019-03-02T10:51:13.256Z,26.97
2019-03-02T10:53:43.346Z,26.25
2019-03-02T10:56:13.515Z,20.97
2019-03-02T10:58:43.475Z,23.05
2019-03-02T11:01:14.241Z,22.48
2019-03-02T11:03:46.535Z,21.40
2019-03-02T11:06:33.080Z,24.40
2019-03-02T11:09:28.895Z,27.40
2019-03-02T11:12:17.616Z,23.20
2019-03-02T11:15:23.594Z,26.82
2019-03-02T11:18:13.610Z,28.32
2019-03-02T11:20:51.838Z,26.45
2019-03-02T11:23:39.571Z,33.83
2019-03-02T11:26:31.814Z,26.97
2019-03-02T11:29:27.256Z,22.65
2019-03-02T11:32:09.565Z,27.00
2019-03-02T11:34:51.329Z,28.42
2019-03-02T11:37:36.918Z,30.05
2019-03-02T11:40:21.747Z,22.48
2019-03-02T11:43:05.133Z,30.50
2019-03-02T11:46:02.225Z,30.25
2019-03-02T11:48:39.265Z,27.75
2019-03-02T11:51:28.032Z,23.83
2019-03-02T11:54:10.936Z,20.25
2019-03-02T11:57:03.262Z,26.45
2019-03-02T11:59:47.181Z,23.90
2019-03-02T12:02:48.417Z,21.73
2019-03-02T12:05:36.690Z,20.15
2019-03-02T12:08:26.122Z,20.43
2019-03-02T12:11:18.422Z,22.15
2019-03-02T12:14:11.336Z,19.42
2019-03-02T12:17:09.950Z,17.00
2019-03-02T12:20:08.519Z,18.40
2019-03-02T12:22:43.794Z,19.02
2019-03-02T12:25:35.153Z,17.92
2019-03-02T12:28:22.468Z,20.80
2019-03-02T12:31:12.127Z,23.70
2019-03-02T12:33:59.871Z,15.20
2019-03-02T12:36:53.199Z,19.77
2019-03-02T12:39:41.693Z,20.23
2019-03-02T12:42:35.702Z,20.12
2019-03-02T12:45:25.791Z,24.65
2019-03-02T12:48:21.367Z,26.10
2019-03-02T12:50:58.919Z,17.95
2019-03-02T12:53:47.561Z,18.80
2019-03-02T12:56:29.069Z,17.73
2019-03-02T12:59:08.422Z,14.90
2019-03-02T13:02:04.064Z,15.43
2019-03-02T13:04:51.876Z,17.32
2019-03-02T13:07:39.439Z,14.25
2019-03-02T13:10:20.301Z,16.65
2019-03-02T13:13:21.693Z,15.23
2019-03-02T13:16:19.821Z,13.30
2019-03-02T13:19:17.504Z,14.60
2019-03-02T13:21:55.575Z,10.15
2019-03-02T13:24:57.923Z,9.50
2019-03-02T13:27:43.958Z,10.30
2019-03-02T13:30:35.259Z,13.22
2019-03-02T13:33:30.002Z,12.43
2019-03-02T13:36:09.061Z,15.70
2019-03-02T13:39:14.438Z,16.73
2019-03-02T13:41:52.464Z,7.65
2019-03-02T13:44:44.797Z,12.65
2019-03-02T13:47:38.733Z,9.03
2019-03-02T13:50:31.036Z,13.60
2019-03-02T13:53:19.889Z,11.65
2019-03-02T13:56:30.041Z,15.75
2019-03-02T13:59:23.198Z,11.22
2019-03-02T14:02:07.628Z,13.48
2019-03-02T14:05:04.943Z,13.75
2019-03-02T14:07:37.481Z,12.33
2019-03-02T14:10:27.937Z,11.33
2019-03-02T14:13:21.310Z,13.18
2019-03-02T14:16:01.195Z,13.95
2019-03-02T14:18:42.684Z,11.10
2019-03-02T14:21:34.417Z,17.70
2019-03-02T14:24:38.799Z,10.13
2019-03-02T14:27:19.879Z,11.38
2019-03-02T14:29:58.709Z,11.25
2019-03-02T14:32:51.537Z,19.15
2019-03-02T14:35:41.977Z,16.30
2019-03-02T14:38:46.355Z,15.45
2019-03-02T14:41:24.377Z,12.70
2019-03-02T14:44:30.211Z,12.33
2019-03-02T14:47:17.756Z,13.38
2019-03-02T14:50:07.973Z,16.05
2019-03-02T14:52:57.554Z,17.23
2019-03-02T14:55:49.822Z,20.82
2019-03-02T14:58:39.518Z,15.43
2019-03-02T15:01:22.216Z,16.27
2019-03-02T15:04:11.712Z,16.00
2019-03-02T15:07:22.264Z,17.15
2019-03-02T15:10:15.952Z,16.17
2019-03-02T15:13:22.170Z,17.07
2019-03-02T15:16:10.561Z,16.60
2019-03-02T15:18:53.462Z,17.52
2019-03-02T15:21:47.768Z,16.27
2019-03-02T15:24:31.705Z,17.77
2019-03-02T15:27:39.532Z,15.63
2019-03-02T15:30:34.189Z,17.32
2019-03-02T15:33:30.356Z,15.32
2019-03-02T15:36:19.616Z,15.32
2019-03-02T15:39:12.873Z,15.15
2019-03-02T15:42:18.051Z,25.90
2019-03-02T15:44:53.743Z,16.05
2019-03-02T15:47:47.452Z,15.50
2019-03-02T15:50:31.553Z,14.00
2019-03-02T15:53:11.221Z,14.40
2019-03-02T15:56:23.354Z,13.03
2019-03-02T15:59:08.380Z,16.20
2019-03-02T16:02:05.671Z,16.52
2019-03-02T16:04:55.592Z,14.45
2019-03-02T16:07:40.984Z,11.63
2019-03-02T16:10:30.529Z,17.60
2019-03-02T16:13:32.324Z,14.85
2019-03-02T16:16:30.703Z,14.28
2019-03-02T16:19:12.855Z,16.62
2019-03-02T16:22:05.161Z,12.70
2019-03-02T16:24:53.210Z,13.05
2019-03-02T16:27:45.215Z,16.37
2019-03-02T16:30:34.694Z,15.38
2019-03-02T16:33:31.202Z,15.08
2019-03-02T16:36:28.355Z,11.60
2019-03-02T16:39:16.238Z,15.23
2019-03-02T16:41:57.544Z,10.72
2019-03-02T16:44:49.618Z,16.12
2019-03-02T16:47:32.100Z,11.60
2019-03-02T16:50:24.281Z,13.05
2019-03-02T16:53:16.170Z,13.75
2019-03-02T16:56:00.494Z,10.75
2019-03-02T16:58:56.903Z,17.00
2019-03-02T17:01:45.034Z,13.93
2019-03-02T17:04:34.961Z,16.00
2019-03-02T17:07:15.439Z,16.15
2019-03-02T17:09:56.838Z,17.80
2019-03-02T17:12:36.415Z,12.65
2019-03-02T17:15:26.893Z,16.25
2019-03-02T17:18:16.453Z,16.05
2019-03-02T17:21:06.194Z,10.68
2019-03-02T17:23:52.742Z,15.03
2019-03-02T17:26:42.106Z,17.85
2019-03-02T17:29:35.879Z,13.83
2019-03-02T17:32:28.210Z,11.53
2019-03-02T17:35:21.538Z,11.48
2019-03-02T17:38:12.150Z,16.73
2019-03-02T17:41:07.235Z,19.75
2019-03-02T17:44:03.902Z,12.05
2019-03-02T17:47:08.600Z,13.45
2019-03-02T17:50:04.171Z,13.13
2019-03-02T17:52:54.405Z,13.95
2019-03-02T17:55:50.429Z,10.88
2019-03-02T17:58:56.559Z,10.13
2019-03-02T18:02:09.742Z,13.50
2019-03-02T18:04:53.081Z,18.40
2019-03-02T18:08:40.056Z,22.42
2019-03-02T18:11:29.154Z,14.78
2019-03-02T18:14:20.130Z,13.50
2019-03-02T18:17:08.655Z,18.77
2019-03-02T18:19:39.772Z,16.52
2019-03-02T18:22:11.663Z,15.75
2019-03-02T18:24:41.674Z,13.48
2019-03-02T18:27:11.769Z,10.68
2019-03-02T18:29:41.687Z,12.07
2019-03-02T18:32:11.946Z,14.80
2019-03-02T18:34:42.494Z,16.30
2019-03-02T18:37:15.830Z,18.60
2019-03-02T18:39:45.907Z,17.82
2019-03-02T18:42:16.093Z,15.93
2019-03-02T18:44:46.028Z,13.03
2019-03-02T18:47:19.840Z,17.07
2019-03-02T18:50:10.847Z,13.43
2019-03-02T18:53:00.472Z,12.07
2019-03-02T18:55:31.193Z,17.60
2019-03-02T18:58:01.129Z,17.05
2019-03-02T19:00:34.489Z,12.20
2019-03-02T19:03:05.241Z,9.60
2019-03-02T19:05:35.327Z,9.70
2019-03-02T19:08:05.215Z,9.03
2019-03-02T19:10:35.396Z,13.90
2019-03-02T19:13:08.479Z,19.67
2019-03-02T19:15:37.650Z,16.25
2019-03-02T19:18:07.651Z,15.35
2019-03-02T19:20:37.561Z,10.65
2019-03-02T19:23:07.700Z,14.65
2019-03-02T19:25:37.715Z,10.95
2019-03-02T19:28:07.634Z,14.63
2019-03-02T19:30:37.644Z,11.18
2019-03-02T19:33:07.769Z,10.75
2019-03-02T19:35:38.033Z,11.57
2019-03-02T19:38:11.320Z,13.20
2019-03-02T19:40:41.279Z,14.80
2019-03-02T19:43:11.259Z,7.95
2019-03-02T19:51:35.864Z,14.78
2019-03-02T19:58:02.630Z,14.15
2019-03-02T20:00:37.157Z,9.13
2019-03-02T20:03:09.845Z,15.45
2019-03-02T20:05:50.321Z,20.45
2019-03-02T20:08:25.777Z,10.25
2019-03-02T20:11:07.353Z,6.85
2019-03-02T20:13:50.586Z,11.30
2019-03-02T20:16:41.247Z,12.33
2019-03-02T20:19:19.447Z,8.15
2019-03-02T20:21:55.593Z,20.62
2019-03-02T20:24:30.392Z,14.35
2019-03-02T20:27:02.169Z,16.52
2019-03-02T20:30:00.613Z,11.57
2019-03-02T20:32:31.200Z,13.00
2019-03-02T20:35:03.580Z,11.88
2019-03-02T20:37:36.793Z,13.48
2019-03-02T20:40:18.928Z,7.15
2019-03-02T20:42:56.255Z,10.28
2019-03-02T20:48:53.077Z,10.68
2019-03-02T20:51:25.189Z,8.55
2019-03-02T20:53:55.428Z,9.38
2019-03-02T20:56:27.935Z,12.90
2019-03-02T20:59:17.952Z,3.98
2019-03-02T21:02:29.753Z,8.95
2019-03-02T21:05:00.292Z,9.80
2019-03-02T21:07:30.516Z,7.45
2019-03-02T21:10:00.713Z,8.13
2019-03-02T21:12:30.711Z,11.75
2019-03-02T21:15:00.656Z,17.52
2019-03-02T21:17:30.539Z,12.15
2019-03-02T21:20:00.455Z,11.80
2019-03-02T21:22:30.366Z,8.13
2019-03-02T21:25:00.528Z,6.55
2019-03-02T21:27:31.404Z,7.47
2019-03-02T21:30:02.391Z,9.55
2019-03-02T21:32:32.813Z,8.00
2019-03-02T21:35:06.191Z,6.80
2019-03-02T21:37:36.979Z,11.78
2019-03-02T21:40:53.833Z,11.15
2019-03-02T21:57:59.877Z,6.33
2019-03-02T22:00:39.348Z,5.72
2019-03-02T22:03:09.293Z,3.67
2019-03-02T22:05:39.160Z,4.90
2019-03-02T22:08:09.049Z,4.65
2019-03-02T22:10:47.103Z,4.92
2019-03-02T22:13:20.267Z,2.62
2019-03-02T22:15:51.038Z,3.08
2019-03-02T22:18:21.464Z,2.80
2019-03-02T22:20:52.310Z,3.02
2019-03-02T22:23:22.895Z,6.33
2019-03-02T22:26:00.565Z,4.50
2019-03-02T22:28:31.228Z,5.83
2019-03-02T22:31:06.727Z,7.53
2019-03-02T22:33:37.639Z,3.45
2019-03-02T22:36:09.515Z,4.65
2019-03-02T22:38:42.254Z,7.20
2019-03-02T22:41:12.394Z,8.43
2019-03-02T22:44:37.716Z,1.47
2019-03-02T22:47:17.513Z,3.62
2019-03-02T22:49:49.882Z,5.55
2019-03-02T22:52:36.132Z,2.05
2019-03-02T22:55:19.119Z,5.10
2019-03-02T22:57:55.798Z,3.05
2019-03-02T23:01:41.663Z,4.10
2019-03-02T23:04:19.678Z,5.70
2019-03-02T23:06:53.696Z,3.22
2019-03-02T23:09:47.019Z,1.37
2019-03-02T23:12:30.920Z,5.50
2019-03-02T23:28:33.769Z,3.42
2019-03-02T23:31:07.266Z,2.90
2019-03-02T23:33:40.918Z,3.80
2019-03-02T23:36:17.255Z,2.72
2019-03-02T23:38:53.950Z,2.50
2019-03-02T23:41:29.832Z,2.17
2019-03-02T23:44:01.422Z,5.65
2019-03-02T23:46:31.731Z,1.32
2019-03-02T23:49:01.653Z,1.75
2019-03-02T23:51:31.568Z,1.27
2019-03-02T23:54:04.150Z,3.20
2019-03-02T23:57:06.337Z,4.25
2019-03-02T23:59:58.330Z,2.90
